Time;durP1;ratioP1;P1;durP2;ratioP2;P2;SDS_P1;SDS_P2;PMS_P1;PMS_P2;Temp;Humidity;BMP_temperature;BMP_pressure;BME280_temperature;BME280_humidity;BME280_pressure;Samples;Min_cycle;Max_cycle;Signal;HPM_P1;HPM_P2
2022/05/20 00:01:44;;;;;;;;;12.00;11.67;;;;;19.53;74.20;100375.56;5038197;28;45407;-74
2022/05/20 00:04:09;;;;;;;;;15.67;12.67;;;;;19.50;74.86;100357.03;5038842;28;45473;-73
2022/05/20 00:06:35;;;;;;;;;15.67;14.33;;;;;19.34;74.13;100340.41;5038657;28;45422;-73
2022/05/20 00:09:01;;;;;;;;;15.33;13.33;;;;;19.42;74.85;100347.41;5037369;28;45601;-73
2022/05/20 00:11:26;;;;;;;;;13.67;13.00;;;;;19.34;75.83;100351.91;5038456;28;46142;-73
2022/05/20 00:13:53;;;;;;;;;15.00;15.00;;;;;19.31;75.49;100364.31;5038301;28;45352;-74
2022/05/20 00:16:18;;;;;;;;;17.67;12.67;;;;;19.33;75.95;100354.56;5038522;28;45434;-74
2022/05/20 00:18:44;;;;;;;;;15.33;13.33;;;;;19.20;75.58;100352.03;5038342;28;45466;-74
2022/05/20 00:21:09;;;;;;;;;14.00;12.67;;;;;19.24;75.92;100345.81;5037185;28;46513;-74
2022/05/20 00:23:35;;;;;;;;;14.00;14.00;;;;;19.27;75.83;100369.59;5038241;28;45314;-74
2022/05/20 00:26:01;;;;;;;;;15.00;14.33;;;;;19.25;75.93;100375.81;5035783;28;45503;-73
2022/05/20 00:28:28;;;;;;;;;14.00;13.00;;;;;19.26;75.96;100370.53;5038402;28;45525;-74
2022/05/20 00:30:57;;;;;;;;;14.00;11.67;;;;;19.23;75.83;100374.94;5038061;28;46180;-74
2022/05/20 00:33:25;;;;;;;;;14.00;12.33;;;;;19.17;75.83;100367.94;5037925;28;45462;-74
2022/05/20 00:35:51;;;;;;;;;13.67;12.00;;;;;19.13;75.65;100362.69;5038085;28;45311;-73
2022/05/20 00:38:17;;;;;;;;;14.00;12.33;;;;;19.03;76.86;100361.88;5038168;28;45351;-74
2022/05/20 00:40:45;;;;;;;;;14.50;13.75;;;;;18.99;76.52;100366.31;5038238;28;45363;-74
2022/05/20 00:43:26;;;;;;;;;14.67;12.33;;;;;18.98;76.47;100361.03;5038361;28;45560;-74
2022/05/20 00:45:54;;;;;;;;;15.00;15.00;;;;;18.98;76.20;100361.91;5037836;28;45298;-73
2022/05/20 00:48:20;;;;;;;;;13.67;13.00;;;;;18.81;76.26;100337.34;5037983;28;45497;-73
2022/05/20 00:50:55;;;;;;;;;11.33;11.33;;;;;18.91;76.46;100352.25;5037612;28;45599;-73
2022/05/20 00:53:23;;;;;;;;;14.00;13.67;;;;;18.90;76.70;100368.13;5037777;28;45617;-73
2022/05/20 00:55:49;;;;;;;;;16.67;13.33;;;;;18.87;76.43;100359.34;5037907;28;45403;-73
2022/05/20 00:58:19;;;;;;;;;12.33;12.00;;;;;18.68;76.07;100337.41;5036803;28;45927;-73
2022/05/20 01:00:50;;;;;;;;;14.00;12.00;;;;;18.68;77.10;100363.84;5037857;28;46261;-73
2022/05/20 01:03:19;;;;;;;;;13.33;12.33;;;;;18.66;76.23;100373.56;5037600;28;45267;-74
2022/05/20 01:05:47;;;;;;;;;14.67;12.67;;;;;18.61;77.21;100378.00;5038118;28;45350;-74
2022/05/20 01:08:17;;;;;;;;;13.00;12.00;;;;;18.62;76.71;100370.94;5038135;28;45328;-74
2022/05/20 01:10:43;;;;;;;;;14.67;13.00;;;;;18.65;77.50;100379.72;5037663;28;46635;-73
2022/05/20 01:13:11;;;;;;;;;12.33;12.00;;;;;18.49;77.15;100341.03;5035889;28;45866;-74
2022/05/20 01:15:37;;;;;;;;;13.00;12.00;;;;;18.57;77.11;100370.09;5037622;28;45378;-74
2022/05/20 01:18:03;;;;;;;;;13.67;13.00;;;;;18.56;77.87;100358.63;5037478;28;45550;-73
2022/05/20 01:20:31;;;;;;;;;14.00;11.33;;;;;18.57;77.01;100370.09;5037279;28;45426;-73
2022/05/20 01:23:06;;;;;;;;;11.67;11.00;;;;;18.54;77.87;100368.31;5036036;28;45463;-73
2022/05/20 01:25:32;;;;;;;;;15.00;14.00;;;;;18.58;77.51;100361.25;5037407;28;45900;-73
2022/05/20 01:27:58;;;;;;;;;16.00;14.00;;;;;18.57;77.97;100362.16;5036202;28;45485;-73
2022/05/20 01:30:26;;;;;;;;;14.33;12.33;;;;;18.64;77.62;100364.75;5037185;28;46204;-73
2022/05/20 01:32:51;;;;;;;;;14.00;13.00;;;;;18.69;77.44;100359.44;5037070;28;45421;-73
2022/05/20 01:35:24;;;;;;;;;11.67;11.67;;;;;18.83;76.92;100362.91;5037637;28;45512;-74
2022/05/20 01:37:50;;;;;;;;;14.00;14.00;;;;;18.83;77.00;100365.53;5037189;28;45450;-73
2022/05/20 01:40:16;;;;;;;;;13.67;13.33;;;;;18.85;77.02;100358.47;5037289;28;45508;-73
2022/05/20 01:42:53;;;;;;;;;13.00;12.00;;;;;18.78;76.81;100348.81;5037114;28;45569;-74
2022/05/20 01:45:42;;;;;;;;;13.00;13.00;;;;;18.88;76.93;100366.41;5037295;28;45268;-74
2022/05/20 01:48:22;;;;;;;;;15.67;14.33;;;;;18.92;76.05;100369.00;5037185;28;45217;-73
2022/05/20 01:50:53;;;;;;;;;17.67;14.67;;;;;18.75;77.11;100355.88;5036885;28;46159;-73
2022/05/20 01:53:35;;;;;;;;;15.50;15.50;;;;;18.87;76.08;100364.63;5036730;28;45503;-74
2022/05/20 01:56:12;;;;;;;;;15.75;14.25;;;;;18.87;76.63;100361.97;5036849;28;45296;-73
2022/05/20 01:58:45;;;;;;;;;15.00;13.33;;;;;18.74;77.39;100347.06;5037009;28;45549;-73
2022/05/20 02:01:18;;;;;;;;;14.67;13.00;;;;;18.66;77.26;100351.50;5036510;28;45208;-73
2022/05/20 02:03:50;;;;;;;;;18.00;16.00;;;;;18.69;77.24;100343.56;5037107;28;45473;-73
2022/05/20 02:06:41;;;;;;;;;14.67;14.33;;;;;18.73;76.88;100358.53;5037206;28;45394;-74
2022/05/20 02:09:17;;;;;;;;;18.33;15.00;;;;;18.50;77.93;100329.56;5036929;28;45492;-74
2022/05/20 02:11:49;;;;;;;;;17.67;15.00;;;;;18.68;78.00;100357.66;5035269;28;45800;-73
2022/05/20 02:14:25;;;;;;;;;16.00;14.33;;;;;18.77;77.84;100347.03;5036880;28;45584;-73
2022/05/20 02:17:03;;;;;;;;;17.25;16.75;;;;;18.76;77.17;100349.69;5036562;28;45244;-74
2022/05/20 02:19:41;;;;;;;;;16.25;15.25;;;;;18.77;77.44;100339.09;5036676;28;45415;-73
2022/05/20 02:22:12;;;;;;;;;13.50;12.25;;;;;18.83;77.42;100340.84;5035094;28;45918;-73
2022/05/20 02:24:40;;;;;;;;;15.50;14.00;;;;;18.77;76.98;100312.63;5035227;28;45324;-74
2022/05/20 02:27:12;;;;;;;;;14.00;13.00;;;;;18.85;77.06;100336.44;5036667;28;45490;-73
2022/05/20 02:29:46;;;;;;;;;13.00;12.00;;;;;18.92;76.41;100337.25;5037402;28;45422;-73
2022/05/20 02:32:29;;;;;;;;;17.00;14.00;;;;;18.78;77.04;100337.31;5036600;28;45442;-73
2022/05/20 02:34:55;;;;;;;;;14.25;14.25;;;;;18.77;76.71;100335.56;5037026;28;45481;-73
2022/05/20 02:37:31;;;;;;;;;12.67;11.33;;;;;18.62;76.42;100318.91;5052280;28;45465;-73
2022/05/20 02:39:57;;;;;;;;;13.50;12.50;;;;;18.65;76.55;100318.88;5037467;28;45280;-73
2022/05/20 02:42:23;;;;;;;;;14.67;14.67;;;;;18.65;77.10;100337.41;5037369;28;46297;-73
2022/05/20 02:44:49;;;;;;;;;16.00;14.33;;;;;18.59;77.41;100342.72;5036435;28;45757;-73
2022/05/20 02:47:15;;;;;;;;;15.75;12.75;;;;;18.50;77.10;100326.91;5036300;28;45224;-73
2022/05/20 02:49:41;;;;;;;;;16.00;14.75;;;;;18.55;77.63;100334.84;5039191;28;45593;-74
2022/05/20 02:52:08;;;;;;;;;17.75;15.00;;;;;18.37;77.97;100315.53;5039671;28;45872;-73
2022/05/20 02:54:34;;;;;;;;;15.00;15.00;;;;;18.35;77.93;100312.03;5039612;28;45393;-73
2022/05/20 02:57:00;;;;;;;;;14.33;12.33;;;;;18.46;78.11;100339.28;5039681;28;45335;-73
2022/05/20 03:04:53;;;;;;;;;14.67;12.00;;;;;18.33;77.89;100318.22;5039495;28;45460;-73
2022/05/20 03:07:19;;;;;;;;;18.00;17.67;;;;;18.38;77.92;100335.81;5040017;28;45320;-73
2022/05/20 03:09:45;;;;;;;;;16.67;16.33;;;;;18.19;77.88;100302.41;5039676;28;45451;-73
2022/05/20 03:12:11;;;;;;;;;17.00;16.50;;;;;18.28;78.39;100342.00;5039343;28;45529;-72
2022/05/20 03:14:38;;;;;;;;;13.75;13.25;;;;;18.18;78.94;100350.88;5038037;28;45435;-73
2022/05/20 03:17:04;;;;;;;;;19.00;16.00;;;;;18.14;79.10;100355.28;5039484;28;45391;-73
2022/05/20 03:19:33;;;;;;;;;19.25;13.75;;;;;18.08;79.16;100350.94;5039402;28;45363;-73
2022/05/20 03:22:00;;;;;;;;;19.00;16.50;;;;;18.08;79.14;100360.59;5039482;28;46008;-73
2022/05/20 03:24:26;;;;;;;;;18.00;15.50;;;;;17.93;79.25;100350.97;5039012;28;45477;-73
2022/05/20 03:26:52;;;;;;;;;19.00;15.75;;;;;17.95;79.63;100362.44;5039531;28;45441;-73
2022/05/20 03:29:18;;;;;;;;;19.00;16.75;;;;;17.83;79.70;100346.59;5039207;28;45433;-73
2022/05/20 03:31:44;;;;;;;;;25.00;20.75;;;;;17.80;80.08;100365.06;5037643;28;45520;-73
2022/05/20 03:34:10;;;;;;;;;18.50;16.50;;;;;17.67;80.23;100359.81;5039040;28;45587;-72
2022/05/20 03:36:39;;;;;;;;;17.25;16.25;;;;;17.63;81.00;100370.41;5039238;28;45209;-73
2022/05/20 03:39:07;;;;;;;;;18.75;15.50;;;;;17.06;81.09;100284.22;5039198;28;45768;-73
2022/05/20 03:41:33;;;;;;;;;19.25;16.00;;;;;17.51;81.04;100371.31;5038833;28;45494;-73
2022/05/20 03:43:59;;;;;;;;;23.75;19.25;;;;;17.43;82.22;100373.09;5038878;28;45400;-73
2022/05/20 03:46:26;;;;;;;;;17.00;15.00;;;;;17.55;81.96;100377.44;5039830;28;45319;-73
2022/05/20 03:48:52;;;;;;;;;16.00;14.00;;;;;17.44;82.15;100388.03;5039730;28;45485;-73
2022/05/20 03:51:18;;;;;;;;;19.25;18.25;;;;;17.34;83.11;100383.63;5037454;28;45642;-73
2022/05/20 03:53:44;;;;;;;;;20.75;17.75;;;;;17.29;83.58;100383.66;5039240;28;45399;-73
2022/05/20 03:56:09;;;;;;;;;17.00;15.25;;;;;17.34;83.11;100387.16;5038915;28;45319;-73
2022/05/20 03:58:36;;;;;;;;;18.50;17.75;;;;;17.24;83.50;100386.25;5039250;28;45557;-73
2022/05/20 04:03:46;;;;;;;;;18.75;18.00;;;;;17.33;83.65;100395.97;5038395;28;45282;-72
2022/05/20 04:06:13;;;;;;;;;19.25;17.25;;;;;17.37;82.56;100391.53;5038443;28;45303;-73
2022/05/20 04:08:39;;;;;;;;;15.50;14.50;;;;;17.30;82.64;100390.66;5038876;28;45411;-73
2022/05/20 04:11:11;;;;;;;;;18.25;17.50;;;;;17.32;83.31;100391.56;5038219;28;45878;-73
2022/05/20 04:13:42;;;;;;;;;20.50;18.75;;;;;17.33;83.20;100392.41;5038229;28;45414;-73
2022/05/20 04:16:10;;;;;;;;;16.25;16.00;;;;;17.36;82.72;100392.44;5037098;28;45439;-72
2022/05/20 04:18:37;;;;;;;;;15.25;15.25;;;;;17.39;82.68;100385.41;5038378;28;45307;-73
2022/05/20 04:21:04;;;;;;;;;20.25;17.00;;;;;17.27;82.53;100354.59;5036704;28;45756;-73
2022/05/20 04:23:32;;;;;;;;;17.25;16.25;;;;;17.46;82.35;100373.94;5038207;28;45204;-73
2022/05/20 04:25:58;;;;;;;;;19.00;17.50;;;;;17.46;82.57;100381.84;5039331;28;45179;-73
2022/05/20 04:28:23;;;;;;;;;17.50;16.00;;;;;17.52;82.41;100391.53;5039013;28;45517;-73
2022/05/20 04:30:55;;;;;;;;;12.50;10.50;;;;;17.55;81.99;100395.94;5037945;28;45501;-73
2022/05/20 04:33:21;;;;;;;;;19.00;17.75;;;;;17.46;82.09;100367.78;5037792;28;45450;-73
2022/05/20 04:35:46;;;;;;;;;20.50;19.00;;;;;17.43;81.69;100394.22;5038028;28;45527;-73
2022/05/20 04:38:12;;;;;;;;;18.75;17.25;;;;;17.54;81.51;100399.47;5039094;28;45484;-73
2022/05/20 04:40:37;;;;;;;;;20.00;17.25;;;;;17.57;81.41;100391.56;5038270;28;46089;-73
2022/05/20 04:48:31;;;;;;;;;19.50;15.50;;;;;17.65;80.45;100406.50;5038801;28;45586;-73
2022/05/20 04:50:56;;;;;;;;;18.00;15.75;;;;;17.71;80.42;100421.47;5038512;28;45313;-73
2022/05/20 04:56:07;;;;;;;;;21.25;19.00;;;;;17.76;80.56;100445.22;5039404;28;45660;-74
2022/05/20 04:58:32;;;;;;;;;19.25;16.75;;;;;17.83;80.34;100444.34;5037471;28;45415;-74
2022/05/20 05:00:58;;;;;;;;;18.67;14.67;;;;;17.90;80.19;100464.63;5037743;28;45315;-73
2022/05/20 05:03:24;;;;;;;;;19.00;16.50;;;;;18.00;79.91;100463.72;5037577;28;45438;-73
2022/05/20 05:05:49;;;;;;;;;22.25;19.00;;;;;18.11;79.57;100473.41;5037847;28;45350;-73
2022/05/20 05:08:17;;;;;;;;;18.50;16.50;;;;;18.23;78.93;100483.97;5037628;28;45410;-73
2022/05/20 05:10:44;;;;;;;;;21.50;18.00;;;;;18.33;78.36;100482.16;5036846;28;45182;-73
2022/05/20 05:13:11;;;;;;;;;17.75;17.50;;;;;18.38;78.63;100497.16;5037408;28;45953;-73
2022/05/20 05:15:37;;;;;;;;;19.25;17.50;;;;;18.51;78.19;100505.03;5037376;28;45501;-73
2022/05/20 05:18:17;;;;;;;;;18.33;16.33;;;;;18.60;77.96;100510.28;5037400;28;45433;-73
2022/05/20 05:20:51;;;;;;;;;21.25;18.25;;;;;18.24;77.62;100430.16;5037186;28;45236;-73
2022/05/20 05:23:17;;;;;;;;;16.75;16.00;;;;;18.55;77.14;100473.25;5037447;28;45438;-74
2022/05/20 05:25:44;;;;;;;;;20.75;17.75;;;;;18.73;76.81;100498.78;5037586;28;45370;-73
2022/05/20 05:28:10;;;;;;;;;19.25;17.25;;;;;18.83;77.11;100510.22;5037528;28;45272;-74
2022/05/20 05:30:35;;;;;;;;;17.67;16.67;;;;;18.90;76.93;100524.31;5037369;28;46090;-73
2022/05/20 05:33:01;;;;;;;;;21.25;19.25;;;;;18.82;76.70;100509.34;5037493;28;45511;-73
2022/05/20 05:35:29;;;;;;;;;20.50;18.75;;;;;19.02;76.62;100541.03;5036150;28;45334;-73
2022/05/20 05:37:56;;;;;;;;;21.50;18.25;;;;;19.11;76.19;100526.84;5037255;28;45307;-73
2022/05/20 05:40:24;;;;;;;;;20.67;17.33;;;;;19.03;76.15;100510.13;5037143;28;45661;-74
2022/05/20 05:42:50;;;;;;;;;20.00;18.67;;;;;19.26;75.70;100540.00;5036942;28;45295;-73
2022/05/20 05:45:19;;;;;;;;;22.00;20.25;;;;;19.31;75.58;100541.75;5036896;28;45329;-73
2022/05/20 05:47:54;;;;;;;;;17.00;16.67;;;;;19.37;75.42;100541.72;5038837;28;45435;-74
2022/05/20 05:50:20;;;;;;;;;19.33;17.33;;;;;19.45;74.98;100556.66;5036583;28;46094;-74
2022/05/20 05:52:46;;;;;;;;;21.00;19.75;;;;;19.54;74.69;100563.69;5036857;28;45515;-74
2022/05/20 05:55:12;;;;;;;;;18.00;17.33;;;;;19.54;74.21;100558.38;5037064;28;45532;-73
2022/05/20 05:57:37;;;;;;;;;17.67;17.00;;;;;19.48;74.18;100550.50;5037115;28;45505;-73
2022/05/20 06:00:04;;;;;;;;;17.67;16.00;;;;;19.50;74.54;100550.44;5036730;28;45850;-74
2022/05/20 06:02:30;;;;;;;;;15.33;14.67;;;;;19.47;74.33;100548.72;5037010;28;45533;-73
2022/05/20 06:04:55;;;;;;;;;23.00;16.33;;;;;19.44;74.27;100559.34;5035508;28;45474;-74
2022/05/20 06:07:21;;;;;;;;;15.00;14.00;;;;;19.64;73.97;100568.03;5037181;28;45430;-74
2022/05/20 06:09:46;;;;;;;;;18.50;16.50;;;;;19.64;73.95;100554.78;5036664;28;45388;-74
2022/05/20 06:12:14;;;;;;;;;15.25;14.25;;;;;19.82;73.47;100561.75;5035330;28;45491;-73
2022/05/20 06:14:40;;;;;;;;;14.67;14.67;;;;;19.90;72.75;100564.34;5036759;28;45258;-73
2022/05/20 06:17:11;;;;;;;;;12.67;12.00;;;;;19.88;72.10;100554.66;5035264;28;45513;-74
2022/05/20 06:19:37;;;;;;;;;14.33;11.67;;;;;19.95;72.00;100549.25;5036374;28;46044;-74
2022/05/20 06:22:03;;;;;;;;;13.00;12.33;;;;;20.09;71.98;100586.25;5036651;28;45379;-74
2022/05/20 06:24:28;;;;;;;;;15.00;13.33;;;;;20.12;71.37;100574.78;5039279;28;45315;-74
2022/05/20 06:26:54;;;;;;;;;25.25;23.00;;;;;20.23;71.20;100584.41;5040141;28;45812;-74
2022/05/20 06:29:20;;;;;;;;;14.33;13.00;;;;;20.34;70.94;100597.53;5039777;28;45362;-74
2022/05/20 06:31:46;;;;;;;;;11.67;11.67;;;;;20.44;70.85;100585.94;5039845;28;45307;-74
2022/05/20 06:34:11;;;;;;;;;10.00;10.00;;;;;20.54;70.40;100591.16;5040055;28;45324;-74
2022/05/20 06:42:16;;;;;;;;;9.00;9.00;;;;;20.77;69.12;100605.13;5034676;28;45454;-74
2022/05/20 06:44:42;;;;;;;;;10.67;9.67;;;;;20.73;69.77;100629.03;5039879;28;45431;-74
2022/05/20 06:47:08;;;;;;;;;10.00;9.00;;;;;20.73;69.65;100629.03;5040073;28;45339;-74
2022/05/20 06:49:33;;;;;;;;;11.33;10.67;;;;;20.67;69.04;100619.34;5039912;28;46009;-74
2022/05/20 06:52:00;;;;;;;;;26.75;24.25;;;;;20.77;69.38;100625.44;5039627;28;45435;-74
2022/05/20 06:54:26;;;;;;;;;9.67;8.67;;;;;20.88;68.66;100628.00;5039802;28;45224;-74
2022/05/20 06:56:52;;;;;;;;;9.00;8.00;;;;;20.94;68.29;100631.47;5038346;28;45390;-74
2022/05/20 06:59:18;;;;;;;;;9.33;7.67;;;;;21.07;67.89;100645.50;5039409;28;46044;-74
2022/05/20 07:01:44;;;;;;;;;9.67;9.00;;;;;21.06;67.47;100614.50;5039570;28;45469;-74
2022/05/20 07:04:09;;;;;;;;;10.00;9.00;;;;;21.20;67.79;100636.47;5039773;28;45506;-74
2022/05/20 07:06:35;;;;;;;;;8.33;8.33;;;;;21.36;67.17;100638.94;5040093;28;45238;-73
2022/05/20 07:09:03;;;;;;;;;7.67;7.00;;;;;21.45;66.85;100641.50;5039489;28;45434;-74
2022/05/20 07:11:28;;;;;;;;;8.67;7.67;;;;;21.53;66.03;100649.38;5038115;28;45356;-74
2022/05/20 07:13:56;;;;;;;;;10.00;9.33;;;;;21.58;65.57;100644.88;5039328;28;45450;-74
2022/05/20 07:16:27;;;;;;;;;7.67;6.33;;;;;21.70;65.42;100657.13;5039768;28;45442;-74
2022/05/20 07:18:52;;;;;;;;;9.67;6.67;;;;;21.84;64.93;100650.72;5038961;28;46174;-74
2022/05/20 07:21:18;;;;;;;;;6.67;6.00;;;;;22.03;64.35;100666.38;5039037;28;45398;-73
2022/05/20 07:23:44;;;;;;;;;8.33;8.00;;;;;22.10;64.23;100673.34;5040169;28;45185;-75
2022/05/20 07:26:10;;;;;;;;;7.00;6.00;;;;;22.19;63.55;100669.69;5039284;28;45417;-74
2022/05/20 07:28:36;;;;;;;;;7.00;7.00;;;;;22.30;63.17;100677.50;5039388;28;45347;-74
2022/05/20 07:31:02;;;;;;;;;7.67;7.00;;;;;22.29;62.70;100697.94;5038925;28;45596;-74
2022/05/20 07:33:28;;;;;;;;;8.00;7.00;;;;;22.15;63.02;100699.91;5037848;28;45344;-74
2022/05/20 07:35:55;;;;;;;;;10.00;7.00;;;;;22.13;63.03;100720.34;5038754;28;45454;-74
2022/05/20 07:38:21;;;;;;;;;9.00;6.00;;;;;21.96;63.22;100748.03;5038335;28;45317;-74
2022/05/20 07:40:47;;;;;;;;;6.33;6.00;;;;;21.68;63.92;100725.38;5038666;28;45406;-73
2022/05/20 07:43:13;;;;;;;;;6.00;6.00;;;;;21.66;63.86;100762.63;5038909;28;45240;-73
2022/05/20 07:45:40;;;;;;;;;6.67;6.00;;;;;21.68;64.10;100775.91;5039125;28;45481;-74
2022/05/20 07:48:06;;;;;;;;;6.67;6.67;;;;;21.61;63.94;100793.72;5038780;28;45520;-74
2022/05/20 07:50:39;;;;;;;;;7.00;6.00;;;;;21.45;64.88;100798.31;5037065;28;45566;-74
2022/05/20 07:53:20;;;;;;;;;7.67;7.67;;;;;21.42;64.09;100791.19;5037477;28;45608;-74
2022/05/20 07:55:51;;;;;;;;;6.00;6.00;;;;;21.43;64.94;100814.28;5038736;28;45315;-74
2022/05/20 07:58:20;;;;;;;;;7.67;6.67;;;;;21.41;64.64;100823.13;5038547;28;45449;-74
2022/05/20 08:00:46;;;;;;;;;9.00;7.33;;;;;21.36;64.78;100809.00;5038429;28;45341;-74
2022/05/20 08:04:52;;;;;;;;;8.33;7.33;;;;;21.54;64.47;100832.75;5038616;28;45461;-74
2022/05/20 08:06:01;;;;;;;;;8.00;6.67;;;;;21.52;64.43;100829.22;5038485;28;45700;-74
2022/05/20 08:08:26;;;;;;;;;6.00;5.00;;;;;21.53;64.01;100835.44;5038315;28;45308;-74
2022/05/20 08:10:52;;;;;;;;;6.00;5.00;;;;;21.51;64.18;100843.44;5038347;28;45334;-74
2022/05/20 08:13:21;;;;;;;;;7.00;6.67;;;;;21.58;64.18;100854.88;5038485;28;45464;-74
2022/05/20 08:15:47;;;;;;;;;6.00;5.00;;;;;;;;5038709;28;45304;-74
2022/05/20 08:18:12;;;;;;;;;6.00;5.67;;;;;21.82;63.45;100854.59;5037803;28;45634;-73
2022/05/20 08:20:38;;;;;;;;;9.00;8.00;;;;;21.94;63.14;100858.88;5038536;28;45382;-74
2022/05/20 08:23:03;;;;;;;;;35.50;31.25;;;;;21.89;62.75;100850.09;5038193;28;45245;-74
2022/05/20 08:25:29;;;;;;;;;59.50;48.25;;;;;21.88;63.25;100874.91;5038366;28;45442;-74
2022/05/20 08:27:55;;;;;;;;;36.00;31.00;;;;;21.85;63.60;100889.16;5036843;28;45663;-74
2022/05/20 08:30:26;;;;;;;;;11.33;10.67;;;;;21.80;63.42;100869.69;5037953;28;45335;-74
2022/05/20 08:32:53;;;;;;;;;9.00;8.67;;;;;21.93;63.06;100888.19;5038239;28;45441;-74
2022/05/20 08:35:20;;;;;;;;;9.33;9.00;;;;;21.91;63.30;100892.66;5036495;28;45343;-74
2022/05/20 08:37:47;;;;;;;;;11.67;7.67;;;;;21.82;63.49;100890.94;5037390;28;45520;-74
2022/05/20 08:40:20;;;;;;;;;12.67;11.67;;;;;21.71;63.51;100898.19;5037616;28;45347;-74
2022/05/20 08:42:47;;;;;;;;;11.00;10.00;;;;;21.62;63.68;100900.00;5036487;28;45553;-74
2022/05/20 08:45:15;;;;;;;;;24.33;18.67;;;;;21.43;64.09;100887.81;5037706;28;45402;-73
2022/05/20 08:47:44;;;;;;;;;21.00;16.67;;;;;21.53;63.78;100916.06;5036773;28;47971;-74
2022/05/20 08:50:14;;;;;;;;;15.33;13.67;;;;;21.56;63.94;100907.19;5037978;28;45422;-74
2022/05/20 08:52:41;;;;;;;;;17.67;13.67;;;;;21.59;64.03;100925.78;5053300;28;45456;-74
2022/05/20 08:55:08;;;;;;;;;13.00;12.33;;;;;21.56;63.70;100910.69;5037848;28;45351;-74
2022/05/20 08:57:34;;;;;;;;;11.00;10.67;;;;;21.51;63.45;100917.84;5037189;28;46114;-74
2022/05/20 09:00:03;;;;;;;;;10.33;9.00;;;;;21.57;63.25;100922.25;5037396;28;45332;-74
2022/05/20 09:02:31;;;;;;;;;14.67;12.00;;;;;21.65;63.25;100931.91;5037331;28;45493;-74
2022/05/20 09:04:57;;;;;;;;;9.00;8.00;;;;;21.52;63.75;100940.00;5036126;28;45483;-74
2022/05/20 09:07:23;;;;;;;;;9.33;8.67;;;;;21.47;63.20;100921.44;5037266;28;45448;-74
2022/05/20 09:09:51;;;;;;;;;11.00;10.00;;;;;21.44;63.45;100914.34;5037523;28;45480;-74
2022/05/20 09:12:39;;;;;;;;;11.00;8.67;;;;;21.68;63.56;100930.97;5037402;28;45375;-74
2022/05/20 09:18:05;;;;;;;;;6.00;6.00;;;;;22.04;62.71;100951.00;5036995;28;45393;-74
2022/05/20 09:20:31;;;;;;;;;9.33;8.67;;;;;22.04;61.60;100927.06;5037079;28;45319;-74
2022/05/20 09:23:04;;;;;;;;;8.67;7.67;;;;;22.17;62.15;100948.22;5037270;28;45511;-74
2022/05/20 09:25:33;;;;;;;;;7.00;6.00;;;;;22.13;61.80;100942.03;5036082;28;45452;-74
2022/05/20 09:28:29;;;;;;;;;10.33;9.00;;;;;22.24;61.18;100949.91;5036751;28;46291;-74
2022/05/20 09:31:12;;;;;;;;;7.00;6.00;;;;;22.11;61.35;100940.31;5036891;28;45208;-74
2022/05/20 09:33:38;;;;;;;;;9.00;6.67;;;;;22.32;61.40;100955.16;5037258;28;45482;-74
2022/05/20 09:36:05;;;;;;;;;9.00;8.00;;;;;22.42;60.68;100959.47;5035782;28;45668;-74
2022/05/20 09:38:40;;;;;;;;;9.00;8.67;;;;;22.58;60.81;100949.50;5036629;28;46065;-74
2022/05/20 09:41:13;;;;;;;;;9.00;7.00;;;;;22.78;60.16;100943.91;5035499;28;45486;-74
2022/05/20 09:43:43;;;;;;;;;7.33;6.00;;;;;22.86;59.68;100959.78;5036834;28;45511;-74
2022/05/20 09:46:40;;;;;;;;;9.67;9.00;;;;;22.93;59.75;100953.47;5036905;28;45512;-74
2022/05/20 09:49:13;;;;;;;;;11.00;8.00;;;;;22.96;59.37;100953.41;5036430;28;45219;-74
2022/05/20 09:51:48;;;;;;;;;9.00;7.33;;;;;22.84;59.06;100959.81;5036367;28;46279;-74
2022/05/20 09:54:36;;;;;;;;;6.33;6.33;;;;;22.78;59.58;100959.88;5037056;28;45457;-74
2022/05/20 09:57:21;;;;;;;;;9.33;8.67;;;;;22.93;59.41;100969.44;5037988;28;45295;-74
2022/05/20 09:59:47;;;;;;;;;12.33;10.33;;;;;22.97;58.97;100979.16;5042828;28;46223;-74
2022/05/20 10:02:33;;;;;;;;;9.67;8.00;;;;;23.09;58.80;100986.13;5043224;28;45418;-74
2022/05/20 10:05:08;;;;;;;;;8.00;5.67;;;;;23.00;58.96;100971.13;5043225;28;45765;-73
2022/05/20 10:07:41;;;;;;;;;8.00;8.00;;;;;22.88;59.14;100968.63;5041759;28;45325;-74
2022/05/20 10:10:15;;;;;;;;;10.67;10.67;;;;;22.79;59.52;100994.50;5043278;28;45474;-74
2022/05/20 10:12:45;;;;;;;;;8.00;7.67;;;;;22.86;59.74;100992.66;5043362;28;45426;-74
2022/05/20 10:15:33;;;;;;;;;10.00;8.00;;;;;22.87;59.92;101007.72;5041735;28;45303;-74
2022/05/20 10:18:28;;;;;;;;;10.33;8.33;;;;;22.63;60.10;101003.59;5043322;28;45573;-73
2022/05/20 10:21:12;;;;;;;;;10.33;9.33;;;;;22.42;60.44;101012.69;5042899;28;45474;-73
2022/05/20 10:23:48;;;;;;;;;9.00;8.00;;;;;22.39;60.50;101005.63;5041791;28;45791;-74
2022/05/20 10:26:39;;;;;;;;;12.00;9.33;;;;;22.33;60.17;101013.69;5043444;28;45438;-73
2022/05/20 10:32:44;;;;;;;;;8.00;7.00;;;;;22.39;60.14;101026.94;5042917;28;45911;-73
2022/05/20 10:35:19;;;;;;;;;8.00;7.00;;;;;22.28;60.58;101012.84;5042933;28;45512;-74
2022/05/20 10:38:10;;;;;;;;;12.00;9.33;;;;;22.17;60.39;101020.94;5043248;28;45259;-74
2022/05/20 10:41:06;;;;;;;;;9.00;9.00;;;;;22.07;61.08;101027.25;5043262;28;45413;-73
2022/05/20 10:49:55;;;;;;;;;11.00;8.00;;;;;22.05;61.05;101031.69;5004974;28;45410;-72
2022/05/20 10:52:29;;;;;;;;;7.67;7.00;;;;;22.11;61.19;101044.94;5042803;28;45316;-73
2022/05/20 10:55:37;;;;;;;;;11.67;9.33;;;;;22.18;60.31;101035.09;5042270;28;45577;-73
2022/05/20 10:58:34;;;;;;;;;9.67;8.67;;;;;22.01;60.58;101022.84;5000088;28;45416;-73
2022/05/20 11:01:15;;;;;;;;;8.67;7.00;;;;;22.09;60.63;101040.53;4999931;28;45541;-73
2022/05/20 11:04:03;;;;;;;;;7.33;7.00;;;;;22.02;60.44;101037.94;5033152;28;45244;-73
2022/05/20 11:06:52;;;;;;;;;7.33;6.00;;;;;21.86;60.99;101028.31;5042108;28;45522;-73
2022/05/20 11:09:34;;;;;;;;;9.67;7.67;;;;;22.08;60.35;101041.41;5040203;28;45444;-73
2022/05/20 11:12:03;;;;;;;;;6.67;5.67;;;;;22.12;60.79;101045.81;5038975;28;45556;-73
2022/05/20 11:14:50;;;;;;;;;7.33;6.00;;;;;22.11;60.16;101036.09;5037916;28;45459;-73
2022/05/20 11:17:37;;;;;;;;;8.00;6.67;;;;;22.04;60.57;101051.22;5039068;28;46132;-73
2022/05/20 11:20:40;;;;;;;;;8.67;7.00;;;;;21.97;60.95;101044.19;5039026;28;45441;-73
2022/05/20 11:23:37;;;;;;;;;6.67;5.33;;;;;22.15;60.40;101048.47;5037698;28;45781;-74
2022/05/20 11:26:09;;;;;;;;;8.00;7.00;;;;;22.17;60.16;101050.19;5038995;28;45371;-73
2022/05/20 11:28:43;;;;;;;;;7.33;7.00;;;;;22.23;59.67;101047.47;5038537;28;46186;-73
2022/05/20 11:31:23;;;;;;;;;9.00;7.33;;;;;22.27;59.66;101053.69;5036949;28;45255;-73
2022/05/20 11:34:12;;;;;;;;;8.33;7.00;;;;;22.33;59.50;101058.06;5038551;28;45502;-73
2022/05/20 11:36:57;;;;;;;;;9.00;7.67;;;;;22.40;59.05;101068.66;5038697;28;45491;-73
2022/05/20 11:40:13;;;;;;;;;8.00;6.33;;;;;22.27;59.31;101047.50;5038293;28;45354;-74
2022/05/20 11:42:57;;;;;;;;;8.00;7.00;;;;;22.35;59.43;101064.25;5037105;28;45403;-73
2022/05/20 11:45:41;;;;;;;;;7.67;7.33;;;;;22.47;58.47;101057.94;5038877;28;45398;-73
2022/05/20 11:48:48;;;;;;;;;7.00;7.00;;;;;22.39;58.65;101061.53;5037251;28;45311;-73
2022/05/20 11:51:36;;;;;;;;;6.67;5.00;;;;;22.54;58.53;101067.59;4996196;28;45410;-73
2022/05/20 11:54:14;;;;;;;;;10.33;8.00;;;;;22.64;57.91;101071.91;5035814;28;45536;-73
2022/05/20 11:56:51;;;;;;;;;7.00;7.00;;;;;22.64;57.95;101056.84;5038345;28;45540;-74
2022/05/20 11:59:27;;;;;;;;;8.00;6.33;;;;;22.58;58.09;101058.66;5038415;28;45390;-74
2022/05/20 12:01:57;;;;;;;;;9.67;8.00;;;;;22.58;58.09;101058.66;5038400;28;45518;-74
2022/05/20 12:04:28;;;;;;;;;7.00;7.00;;;;;22.64;57.98;101064.81;5038418;28;45444;-73
2022/05/20 12:07:05;;;;;;;;;7.67;7.00;;;;;22.66;58.13;101070.13;5038617;28;45450;-74